BNI weather

Benin Airport
Benin, Edo, Nigeria

Public forecast

Using degrees Celsius for public forecast. Weather courtesy of forecast.io.

METAR (pilot weather report)

Report is more than 6 hours old.

Retrieved 2019/04/27 16:00 UTC (26 days ago):

DNBE 271600Z 33010KT 9999 FEW012 33/27 Q1008

TAF (pilot weather forecast)

Forecast is more than 12 hours old.

Retrieved 2019/04/01 06:00 UTC (2 months ago):

TAF DNBE 010350Z 0106/0212 VRB02KT 9999 FEW010 TEMPO 0106/0108 3000 BR BECMG 0108/0110 22010KT BKN013 FEW020CB TEMPO 0113/0118 5000 -TSRA BKN009 FEW019CB BECMG 0120/0122 VRB02KT